Chesterland, OH

1:54 AM EDT on August 30, 2015 (GMT -0400)
Bell Street Pepper Patch | | Change Station
CLOSE
Current Station
Personal Weather Station
Location: Chagrin Falls, OH
Elevation: 1010 ft
Nearby Weather Stations

Elev 1010 ft 41.43 °N, 81.38 °W | Updated 5 seconds ago

Rain
Rain
68.2 °F
Feels Like 68.2 °F
N
0.0
Wind Variable Wind from North
Gusts 2.2 mph

Today
High -- | Low -- °F
--% Chance of Precip.
Yesterday
High -- | Low -- °F
Precip. -- in
6:49 AM 8:02 PM
Full, 100% visible
Pressure 30.07 in
Visibility 4.0 miles
Clouds Few 3500 ft
Mostly Cloudy 5500 ft
Overcast 7000 ft
Dew Point 68 °F
Humidity 99%
Rainfall 0.00 in
Snow Depth Not available.
UV 0 out of 12
Pollen 9.40 out of 12
Air Quality Not available.
Flu Activity Not available.
SPECI KBKL 300549Z 20009KT 4SM VCTS BR FEW035 BKN055 OVC070 21/18 A3007 RMK AO2 TSB28E49 P0015
Pressure 30.07 in
Visibility 4.0 miles
Clouds Few 3500 ft
Mostly Cloudy 5500 ft
Overcast 7000 ft
Dew Point 68 °F
Humidity 99%
Rainfall 0.00 in
Snow Depth Not available.
UV 0 out of 12
Pollen 9.40 out of 12
Air Quality Not available.
Flu Activity Not available.
SPECI KBKL 300549Z 20009KT 4SM VCTS BR FEW035 BKN055 OVC070 21/18 A3007 RMK AO2 TSB28E49 P0015

10-Day Weather Forecast

×

Almanac

Astronomy

Aug. 30, 2015 Rise Set
Actual Time
Civil Twilight
Nautical Twilight
Astronomical Twilight
Moon
Length of Visible Light
Length of Day
Tomorrow will be .
, % of the Moon is Illuminated

Today's Extremes

State Highs State Lows

Community

WunderPhotos

Upload Photos

1,850,896 photos uploaded!

WunderBlogs® & News

Nearby

Air Quality

  Air Quality AQ Index Pollutant
Not available.

Snow Depth

Station Depth Elevation

Earthquake Activity

City Distance Mag. Time & Date
Minimum magnitude displayed is 2.5.

Coastal Water Temperatures

Place Temperature

Stations

Nearby Weather Stations

Station Location Temp. Windchill Dew Point Humidity Wind Precip. Elev Updated Type